createdAt,value
2022-09-05T00:04:24.961Z,419.05
2022-09-05T00:09:40.077Z,419.74
2022-09-05T00:15:18.450Z,419.74
2022-09-05T00:24:32.906Z,419.91
2022-09-05T00:26:14.792Z,419.74
2022-09-05T00:31:55.941Z,420.26
2022-09-05T00:37:18.255Z,420.26
2022-09-05T00:42:49.491Z,420.26
2022-09-05T00:48:20.857Z,420.26
2022-09-05T00:53:52.492Z,420.26
2022-09-05T00:59:23.852Z,420.43
2022-09-05T01:04:55.707Z,420.61
2022-09-05T01:10:27.313Z,420.61
2022-09-05T01:15:58.725Z,420.43
2022-09-05T01:21:30.042Z,420.09
2022-09-05T01:27:01.670Z,420.09
2022-09-05T01:32:33.175Z,419.74
2022-09-05T01:38:04.740Z,419.74
2022-09-05T01:43:36.082Z,420.09
2022-09-05T01:49:07.825Z,419.91
2022-09-05T01:54:39.539Z,419.74
2022-09-05T02:00:10.837Z,419.39
2022-09-05T02:11:13.726Z,419.39
2022-09-05T02:16:45.303Z,419.05
2022-09-05T02:22:16.933Z,418.87
2022-09-05T02:28:04.246Z,418.70
2022-09-05T02:42:22.554Z,418.87
2022-09-05T02:45:11.754Z,419.05
2022-09-05T02:57:33.580Z,419.05
2022-09-05T03:00:58.844Z,419.22
2022-09-05T03:06:34.655Z,419.22
2022-09-05T03:12:27.120Z,419.05
2022-09-05T03:23:05.492Z,418.35
2022-09-05T03:28:37.060Z,418.18
2022-09-05T03:34:08.340Z,418.35
2022-09-05T03:39:39.968Z,418.53
2022-09-05T03:57:05.817Z,418.35
2022-09-05T03:57:23.407Z,418.35
2022-09-05T04:05:51.620Z,418.35
2022-09-05T04:08:24.666Z,419.05
2022-09-05T04:12:49.358Z,419.39
2022-09-05T04:23:53.075Z,419.22
2022-09-05T04:29:24.781Z,419.22
2022-09-05T04:34:56.256Z,419.05
2022-09-05T04:40:32.243Z,418.70
2022-09-05T04:45:59.687Z,418.70
2022-09-05T04:51:31.879Z,418.35
2022-09-05T04:57:14.076Z,417.83
2022-09-05T05:06:19.104Z,417.49
2022-09-05T05:08:07.055Z,415.93
2022-09-05T05:18:02.533Z,415.58
2022-09-05T05:30:14.195Z,414.63
2022-09-05T05:35:48.541Z,414.28
2022-09-05T05:41:19.899Z,414.11
2022-09-05T05:46:51.425Z,413.76
2022-09-05T05:52:25.470Z,413.59
2022-09-05T05:57:57.241Z,413.41
2022-09-05T06:03:29.682Z,413.24
2022-09-05T06:13:06.292Z,412.89
2022-09-05T06:21:58.273Z,412.72
2022-09-05T06:25:36.572Z,412.72
2022-09-05T06:31:29.286Z,412.72
2022-09-05T06:36:40.176Z,412.89
2022-09-05T06:47:43.663Z,413.59
2022-09-05T06:58:44.783Z,413.59
2022-09-05T07:05:05.224Z,413.41
2022-09-05T07:09:48.379Z,413.41
2022-09-05T07:15:20.612Z,412.89
2022-09-05T07:21:16.553Z,412.89
2022-09-05T07:26:51.383Z,412.72
2022-09-05T07:31:55.432Z,412.55
2022-09-05T07:37:27.297Z,412.37
2022-09-05T07:43:09.123Z,412.03
2022-09-05T07:48:34.813Z,411.68
2022-09-05T07:57:08.679Z,411.68
2022-09-05T07:59:33.952Z,411.51
2022-09-05T08:05:06.206Z,411.16
2022-09-05T08:07:47.772Z,410.99
2022-09-05T08:13:24.577Z,410.82
2022-09-05T08:18:21.377Z,411.33
2022-09-05T08:23:52.915Z,411.85
2022-09-05T08:29:24.578Z,412.03
2022-09-05T08:34:55.843Z,412.20
2022-09-05T08:40:27.424Z,412.37
2022-09-05T08:46:40.699Z,412.55
2022-09-05T08:51:31.388Z,413.07
2022-09-05T08:57:03.179Z,413.07
2022-09-05T09:02:46.936Z,413.59
2022-09-05T09:08:06.715Z,413.93
2022-09-05T09:13:38.330Z,414.28
2022-09-05T09:19:09.628Z,414.80
2022-09-05T09:24:41.726Z,415.49
2022-09-05T09:30:13.415Z,415.49
2022-09-05T09:41:16.855Z,415.75
2022-09-05T09:46:48.707Z,415.93
2022-09-05T09:52:20.834Z,415.93
2022-09-05T09:57:51.843Z,416.10
2022-09-05T10:07:36.789Z,416.10
2022-09-05T10:10:48.843Z,416.97
2022-09-05T10:14:49.065Z,416.97
2022-09-05T10:20:09.095Z,417.31
2022-09-05T10:32:56.025Z,417.31
2022-09-05T10:36:40.146Z,417.66
2022-09-05T10:42:12.055Z,418.35
2022-09-05T10:47:43.994Z,418.87
2022-09-05T10:53:15.725Z,419.05
2022-09-05T11:00:58.064Z,419.57
2022-09-05T11:04:18.882Z,419.91
2022-09-05T11:09:56.058Z,420.26
2022-09-05T11:15:24.217Z,420.43
2022-09-05T11:20:55.825Z,420.61
2022-09-05T11:34:07.372Z,421.04
2022-09-05T11:39:52.514Z,421.04
2022-09-05T11:43:00.839Z,421.56
2022-09-05T11:48:32.991Z,421.91
2022-09-05T11:54:05.012Z,422.26
2022-09-05T11:59:36.925Z,422.60
2022-09-05T12:05:48.447Z,422.95
2022-09-05T12:10:47.031Z,423.30
2022-09-05T12:16:12.027Z,423.47
2022-09-05T12:21:43.675Z,423.64
2022-09-05T12:27:42.935Z,423.99
2022-09-05T12:36:01.502Z,424.34
2022-09-05T12:40:56.188Z,424.51
2022-09-05T12:44:38.063Z,424.86
2022-09-05T12:49:23.297Z,424.68
2022-09-05T12:54:57.078Z,425.12
2022-09-05T13:03:04.284Z,425.12
2022-09-05T13:05:58.789Z,425.12
2022-09-05T13:15:02.696Z,425.64
2022-09-05T13:17:02.236Z,425.81
2022-09-05T13:22:34.061Z,426.33
2022-09-05T13:44:34.618Z,428.07
2022-09-05T13:55:36.112Z,428.76
2022-09-05T14:11:18.131Z,431.28
2022-09-05T14:16:53.651Z,431.10
2022-09-05T14:27:51.239Z,432.15
2022-09-05T14:37:36.030Z,432.49
2022-09-05T14:38:54.901Z,432.67
2022-09-05T14:44:27.660Z,433.01
2022-09-05T14:49:59.700Z,432.84
2022-09-05T14:55:31.440Z,433.01
2022-09-05T15:02:44.407Z,433.36
2022-09-05T15:06:35.078Z,433.53
2022-09-05T15:12:22.172Z,433.97
2022-09-05T15:17:38.627Z,434.14
2022-09-05T15:23:16.156Z,434.49
2022-09-05T15:28:42.249Z,434.66
2022-09-05T15:39:43.466Z,435.36
2022-09-05T15:45:15.227Z,436.05
2022-09-05T15:50:47.051Z,436.40
2022-09-05T15:56:18.992Z,436.57
2022-09-05T16:10:48.806Z,436.57
2022-09-05T16:23:12.789Z,436.92
2022-09-05T16:26:25.506Z,436.92
2022-09-05T16:31:51.893Z,437.09
2022-09-05T16:37:23.588Z,436.92
2022-09-05T16:42:55.511Z,436.92
2022-09-05T16:59:30.866Z,437.09
2022-09-05T17:05:05.395Z,437.27
2022-09-05T17:10:34.263Z,437.44
2022-09-05T17:16:05.944Z,437.62
2022-09-05T17:22:32.284Z,437.62
2022-09-05T17:29:50.493Z,437.79
2022-09-05T17:38:14.497Z,437.79
2022-09-05T17:43:46.532Z,437.62
2022-09-05T17:49:20.476Z,437.62
2022-09-05T17:54:50.545Z,437.27
2022-09-05T18:24:42.724Z,436.23
2022-09-05T18:30:14.327Z,436.23
2022-09-05T18:35:50.718Z,435.88
2022-09-05T18:41:19.499Z,435.88
2022-09-05T18:46:51.739Z,435.88
2022-09-05T18:52:24.143Z,435.71
2022-09-05T18:57:58.893Z,435.88
2022-09-05T19:03:28.016Z,435.88
2022-09-05T19:08:59.804Z,435.88
2022-09-05T19:14:31.659Z,436.05
2022-09-05T19:20:12.587Z,435.88
2022-09-05T19:25:35.190Z,435.53
2022-09-05T19:36:47.008Z,435.71
2022-09-05T19:37:04.777Z,435.88
2022-09-05T19:47:30.003Z,435.71
2022-09-05T19:53:13.686Z,435.88
2022-09-05T19:58:45.284Z,435.88
2022-09-05T20:04:17.252Z,436.05
2022-09-05T20:09:48.913Z,435.88
2022-09-05T20:15:20.694Z,436.23
2022-09-05T20:20:52.339Z,436.23
2022-09-05T20:26:24.243Z,436.23
2022-09-05T20:31:56.042Z,436.57
2022-09-05T20:43:08.580Z,436.75
2022-09-05T20:43:26.811Z,436.92
2022-09-05T20:59:32.081Z,437.62
2022-09-05T21:05:06.922Z,437.79
2022-09-05T21:10:33.726Z,437.88
2022-09-05T21:16:05.725Z,437.79
2022-09-05T21:21:37.382Z,437.62
2022-09-05T21:27:09.111Z,437.62
2022-09-05T21:32:41.482Z,437.44
2022-09-05T21:38:12.695Z,437.62
2022-09-05T21:47:38.963Z,437.62
2022-09-05T21:49:16.262Z,437.88
2022-09-05T21:59:17.233Z,437.62
2022-09-05T22:00:19.707Z,437.62
2022-09-05T22:05:51.512Z,437.27
2022-09-05T22:11:23.477Z,437.79
2022-09-05T22:16:55.343Z,438.05
2022-09-05T22:22:27.051Z,437.88
2022-09-05T22:27:58.924Z,437.62
2022-09-05T22:33:30.451Z,437.88
2022-09-05T22:39:02.599Z,437.88
2022-09-05T22:44:34.282Z,438.05
2022-09-05T22:50:06.172Z,438.40
2022-09-05T22:55:37.954Z,439.09
2022-09-05T23:01:09.447Z,439.44
2022-09-05T23:06:41.381Z,439.27
2022-09-05T23:12:13.346Z,439.27
2022-09-05T23:17:45.556Z,439.61
2022-09-05T23:23:17.263Z,439.79
2022-09-05T23:28:49.102Z,439.96
2022-09-05T23:34:20.775Z,440.13
2022-09-05T23:39:52.590Z,440.48
2022-09-05T23:50:54.221Z,440.83
2022-09-05T23:56:26.229Z,441.00
